createdAt,value
2023-05-24T00:00:02.968Z,4.80
2023-05-24T00:02:30.165Z,4.90
2023-05-24T00:05:01.086Z,5.00
2023-05-24T00:07:28.539Z,5.03
2023-05-24T00:09:56.089Z,4.90
2023-05-24T00:12:23.238Z,4.87
2023-05-24T00:14:51.191Z,5.10
2023-05-24T00:17:18.525Z,5.30
2023-05-24T00:19:45.779Z,5.27
2023-05-24T00:22:14.036Z,5.10
2023-05-24T00:24:41.298Z,5.50
2023-05-24T00:27:08.871Z,5.00
2023-05-24T00:29:36.039Z,4.53
2023-05-24T00:32:03.250Z,5.40
2023-05-24T00:34:30.477Z,4.97
2023-05-24T00:36:58.669Z,5.17
2023-05-24T00:39:25.836Z,5.50
2023-05-24T00:41:53.074Z,5.50
2023-05-24T00:44:20.408Z,5.13
2023-05-24T00:46:48.279Z,4.90
2023-05-24T00:49:15.440Z,4.90
2023-05-24T00:51:42.643Z,5.30
2023-05-24T00:54:09.794Z,5.10
2023-05-24T00:56:37.009Z,4.90
2023-05-24T00:59:04.187Z,4.80
2023-05-24T01:01:31.562Z,5.87
2023-05-24T01:03:59.551Z,4.70
2023-05-24T01:06:28.496Z,4.20
2023-05-24T01:09:11.712Z,4.80
2023-05-24T01:11:51.493Z,4.40
2023-05-24T01:14:32.728Z,5.07
2023-05-24T01:17:06.163Z,4.80
2023-05-24T01:19:43.431Z,4.70
2023-05-24T01:22:14.243Z,4.50
2023-05-24T01:24:51.766Z,4.80
2023-05-24T01:27:18.975Z,4.50
2023-05-24T01:29:53.190Z,4.63
2023-05-24T01:32:20.755Z,4.60
2023-05-24T01:34:48.062Z,4.87
2023-05-24T01:37:15.268Z,5.00
2023-05-24T01:39:43.601Z,4.57
2023-05-24T01:42:29.563Z,5.30
2023-05-24T01:45:01.725Z,4.60
2023-05-24T01:47:28.858Z,4.40
2023-05-24T01:50:00.289Z,4.70
2023-05-24T01:52:32.789Z,4.73
2023-05-24T01:55:01.028Z,4.17
2023-05-24T01:57:28.537Z,5.07
2023-05-24T01:59:56.293Z,5.03
2023-05-24T02:02:23.744Z,4.17
2023-05-24T02:04:51.069Z,4.60
2023-05-24T02:07:19.351Z,4.53
2023-05-24T02:09:46.526Z,4.73
2023-05-24T02:12:13.728Z,4.20
2023-05-24T02:14:42.783Z,4.47
2023-05-24T02:17:10.201Z,4.20
2023-05-24T02:19:37.445Z,5.03
2023-05-24T02:22:04.751Z,4.73
2023-05-24T02:24:31.922Z,4.13
2023-05-24T02:26:59.130Z,4.27
2023-05-24T02:29:26.262Z,3.90
2023-05-24T02:31:56.508Z,4.63
2023-05-24T02:34:24.091Z,4.53
2023-05-24T02:36:51.837Z,4.70
2023-05-24T02:39:19.006Z,4.50
2023-05-24T02:41:46.226Z,4.13
2023-05-24T02:44:13.392Z,3.83
2023-05-24T02:46:40.647Z,4.63
2023-05-24T02:49:07.847Z,4.27
2023-05-24T02:51:34.996Z,4.23
2023-05-24T02:54:02.159Z,4.40
2023-05-24T02:56:29.402Z,4.00
2023-05-24T02:58:56.750Z,4.27
2023-05-24T03:01:24.118Z,4.67
2023-05-24T03:03:51.445Z,4.70
2023-05-24T03:06:18.653Z,4.73
2023-05-24T03:08:46.054Z,4.60
2023-05-24T03:11:13.240Z,4.53
2023-05-24T03:13:40.636Z,4.53
2023-05-24T03:16:07.962Z,4.83
2023-05-24T03:18:35.138Z,4.73
2023-05-24T03:21:02.278Z,4.80
2023-05-24T03:23:29.496Z,4.40
2023-05-24T03:25:56.774Z,4.33
2023-05-24T03:28:24.409Z,4.53
2023-05-24T03:30:51.545Z,5.07
2023-05-24T03:33:18.777Z,4.80
2023-05-24T03:35:45.924Z,4.37
2023-05-24T03:38:13.058Z,4.73
2023-05-24T03:40:40.569Z,4.23
2023-05-24T03:43:08.101Z,4.43
2023-05-24T03:45:39.866Z,4.30
2023-05-24T03:48:07.588Z,4.40
2023-05-24T03:50:34.845Z,4.57
2023-05-24T03:53:02.183Z,4.57
2023-05-24T03:55:29.336Z,4.00
2023-05-24T03:57:56.478Z,4.63
2023-05-24T04:00:23.598Z,4.23
2023-05-24T04:02:50.952Z,4.80
2023-05-24T04:05:18.251Z,4.60
2023-05-24T04:07:46.422Z,4.20
2023-05-24T04:10:13.712Z,4.73
2023-05-24T04:12:42.096Z,4.50
2023-05-24T04:15:09.969Z,4.23
2023-05-24T04:17:37.335Z,4.50
2023-05-24T04:20:05.958Z,4.17
2023-05-24T04:22:33.115Z,4.20
2023-05-24T04:25:00.466Z,4.43
2023-05-24T04:27:27.687Z,4.47
2023-05-24T04:29:55.065Z,4.60
2023-05-24T04:32:23.501Z,4.37
2023-05-24T04:34:52.526Z,4.50
2023-05-24T04:37:19.687Z,4.13
2023-05-24T04:39:46.853Z,4.47
2023-05-24T04:42:14.491Z,4.13
2023-05-24T04:44:42.648Z,4.07
2023-05-24T04:47:10.740Z,4.27
2023-05-24T04:49:38.077Z,3.87
2023-05-24T04:52:05.456Z,3.80
2023-05-24T04:54:32.763Z,3.83
2023-05-24T04:56:59.906Z,4.20
2023-05-24T04:59:27.053Z,4.27
2023-05-24T05:01:54.401Z,4.50
2023-05-24T05:04:21.631Z,4.00
2023-05-24T05:06:49.135Z,4.30
2023-05-24T05:09:16.314Z,3.90
2023-05-24T05:11:43.605Z,3.67
2023-05-24T05:14:11.701Z,4.07
2023-05-24T05:16:39.531Z,4.03
2023-05-24T05:19:06.809Z,3.70
2023-05-24T05:21:34.525Z,3.73
2023-05-24T05:24:02.142Z,3.57
2023-05-24T05:26:29.518Z,3.70
2023-05-24T05:28:57.895Z,4.23
2023-05-24T05:31:25.223Z,3.80
2023-05-24T05:33:52.442Z,3.50
2023-05-24T05:36:19.661Z,3.80
2023-05-24T05:38:46.823Z,3.80
2023-05-24T05:41:13.971Z,3.43
2023-05-24T05:43:41.302Z,3.43
2023-05-24T05:46:08.590Z,3.50
2023-05-24T05:48:36.247Z,3.47
2023-05-24T05:51:03.458Z,3.60
2023-05-24T05:53:30.601Z,3.60
2023-05-24T05:55:57.717Z,3.67
2023-05-24T05:58:24.826Z,3.67
2023-05-24T06:00:52.020Z,3.40
2023-05-24T06:03:19.295Z,4.00
2023-05-24T06:05:46.672Z,3.80
2023-05-24T06:08:13.813Z,3.80
2023-05-24T06:10:41.112Z,3.60
2023-05-24T06:13:08.473Z,3.33
2023-05-24T06:15:35.708Z,3.30
2023-05-24T06:18:02.896Z,3.47
2023-05-24T06:20:30.228Z,3.08
2023-05-24T06:22:57.579Z,3.40
2023-05-24T06:25:24.830Z,3.70
2023-05-24T06:27:51.993Z,3.58
2023-05-24T06:30:19.253Z,3.35
2023-05-24T06:32:46.482Z,3.10
2023-05-24T06:35:14.223Z,3.33
2023-05-24T06:37:41.423Z,3.70
2023-05-24T06:40:11.885Z,3.55
2023-05-24T06:42:40.017Z,3.30
2023-05-24T06:45:08.446Z,3.70
2023-05-24T06:47:36.214Z,3.38
2023-05-24T06:50:04.740Z,3.05
2023-05-24T06:52:31.875Z,3.30
2023-05-24T06:54:59.163Z,3.58
2023-05-24T06:57:27.052Z,3.35
2023-05-24T06:59:54.267Z,3.08
2023-05-24T07:02:26.646Z,3.58
2023-05-24T07:04:54.422Z,3.35
2023-05-24T07:07:21.801Z,3.15
2023-05-24T07:09:49.008Z,3.35
2023-05-24T07:12:16.331Z,3.40
2023-05-24T07:14:43.525Z,3.42
2023-05-24T07:17:10.727Z,3.40
2023-05-24T07:19:38.393Z,3.10
2023-05-24T07:22:05.946Z,3.65
2023-05-24T07:24:33.144Z,3.33
2023-05-24T07:27:00.302Z,3.67
2023-05-24T07:29:27.632Z,3.80
2023-05-24T07:31:56.533Z,3.17
2023-05-24T07:34:27.401Z,3.20
2023-05-24T07:36:54.632Z,3.40
2023-05-24T07:39:21.819Z,3.70
2023-05-24T07:41:49.117Z,3.10
2023-05-24T07:44:16.268Z,3.60
2023-05-24T07:46:43.433Z,3.28
2023-05-24T07:49:11.064Z,3.83
2023-05-24T07:51:38.940Z,3.28
2023-05-24T07:54:06.706Z,3.80
2023-05-24T07:56:33.973Z,3.10
2023-05-24T07:59:04.808Z,3.55
2023-05-24T08:01:34.390Z,3.80
2023-05-24T08:04:03.943Z,3.70
2023-05-24T08:06:32.825Z,3.40
2023-05-24T08:09:00.194Z,3.70
2023-05-24T08:11:27.497Z,3.67
2023-05-24T08:13:54.642Z,3.42
2023-05-24T08:16:21.897Z,3.28
2023-05-24T08:18:49.045Z,3.40
2023-05-24T08:21:16.598Z,3.13
2023-05-24T08:23:43.876Z,3.38
2023-05-24T08:26:11.060Z,3.03
2023-05-24T08:28:38.331Z,2.92
2023-05-24T08:31:06.215Z,3.42
2023-05-24T08:33:33.835Z,3.20
2023-05-24T08:36:01.030Z,3.33
2023-05-24T08:38:29.447Z,3.83
2023-05-24T08:40:56.764Z,3.50
2023-05-24T08:43:24.672Z,3.15
2023-05-24T08:45:52.857Z,3.03
2023-05-24T08:48:20.145Z,2.92
2023-05-24T08:50:48.014Z,3.05
2023-05-24T08:53:15.569Z,3.00
2023-05-24T08:55:43.913Z,2.90
2023-05-24T08:58:11.843Z,2.70
2023-05-24T09:00:38.974Z,2.97
2023-05-24T09:03:06.980Z,3.13
2023-05-24T09:05:34.534Z,3.30
2023-05-24T09:08:02.163Z,3.00
2023-05-24T09:10:35.414Z,2.60
2023-05-24T09:13:08.700Z,2.72
2023-05-24T09:15:35.903Z,2.95
2023-05-24T09:18:03.236Z,2.97
2023-05-24T09:20:31.124Z,3.03
2023-05-24T09:22:59.821Z,2.85
2023-05-24T09:25:29.816Z,3.58
2023-05-24T09:27:56.999Z,3.13
2023-05-24T09:30:24.336Z,3.03
2023-05-24T09:32:58.372Z,2.67
2023-05-24T09:35:27.059Z,2.88
2023-05-24T09:38:00.727Z,2.67
2023-05-24T09:40:28.538Z,2.70
2023-05-24T09:43:05.938Z,2.78
2023-05-24T09:45:33.369Z,3.13
2023-05-24T09:48:00.854Z,2.92
2023-05-24T09:50:28.226Z,2.80
2023-05-24T09:52:56.245Z,2.75
2023-05-24T09:55:23.659Z,2.95
2023-05-24T09:58:03.302Z,2.92
2023-05-24T10:00:31.067Z,2.92
2023-05-24T10:03:07.426Z,2.70
2023-05-24T10:05:35.044Z,2.67
2023-05-24T10:08:02.470Z,2.80
2023-05-24T10:10:30.515Z,2.70
2023-05-24T10:12:58.345Z,2.80
2023-05-24T10:15:26.119Z,2.95
2023-05-24T10:17:53.848Z,2.70
2023-05-24T10:20:22.166Z,2.70
2023-05-24T10:22:52.400Z,3.03
2023-05-24T10:25:23.473Z,2.95
2023-05-24T10:27:52.648Z,2.90
2023-05-24T10:30:22.881Z,2.75
2023-05-24T10:32:51.751Z,2.78
2023-05-24T10:35:20.337Z,2.92
2023-05-24T10:37:48.058Z,2.60
2023-05-24T10:40:20.248Z,3.00
2023-05-24T10:42:47.930Z,3.03
2023-05-24T10:45:41.382Z,2.80
2023-05-24T10:48:15.518Z,3.22
2023-05-24T10:50:43.213Z,2.67
2023-05-24T10:53:22.442Z,2.63
2023-05-24T10:55:57.331Z,2.60
2023-05-24T10:58:30.601Z,3.15
2023-05-24T11:00:57.877Z,2.85
2023-05-24T11:03:25.417Z,3.00
2023-05-24T11:05:54.489Z,2.75
2023-05-24T11:08:38.072Z,2.60
2023-05-24T11:11:23.480Z,2.92
2023-05-24T11:13:57.438Z,3.08
2023-05-24T11:16:38.779Z,2.70
2023-05-24T11:19:20.337Z,2.80
2023-05-24T11:21:48.714Z,2.50
2023-05-24T11:24:19.757Z,2.70
2023-05-24T11:26:47.358Z,2.80
2023-05-24T11:29:20.814Z,2.97
2023-05-24T11:31:48.627Z,3.00
2023-05-24T11:34:17.279Z,2.70
2023-05-24T11:36:44.914Z,2.88
2023-05-24T11:39:12.084Z,3.00
2023-05-24T11:41:39.722Z,3.40
2023-05-24T11:44:09.163Z,3.17
2023-05-24T11:46:36.880Z,2.95
2023-05-24T11:49:04.506Z,2.97
2023-05-24T11:51:32.469Z,2.88
2023-05-24T11:54:00.220Z,3.17
2023-05-24T11:56:30.342Z,2.72
2023-05-24T11:59:15.291Z,2.75
2023-05-24T12:01:42.883Z,3.20
2023-05-24T12:04:10.315Z,2.72
2023-05-24T12:06:38.856Z,2.58
2023-05-24T12:09:08.632Z,2.97
2023-05-24T12:11:39.928Z,2.95
2023-05-24T12:14:07.660Z,3.15
2023-05-24T12:16:36.878Z,3.15
2023-05-24T12:19:11.566Z,3.10
2023-05-24T12:21:44.249Z,2.92
2023-05-24T12:24:12.363Z,3.00
2023-05-24T12:26:43.414Z,3.17
2023-05-24T12:29:11.678Z,2.90
2023-05-24T12:31:40.642Z,3.00
2023-05-24T12:34:08.565Z,3.20
2023-05-24T12:36:36.716Z,2.88
2023-05-24T12:39:18.029Z,2.75
2023-05-24T12:41:45.640Z,3.40
2023-05-24T12:44:13.091Z,2.75
2023-05-24T12:46:40.322Z,2.80
2023-05-24T12:49:07.572Z,2.78
2023-05-24T12:51:34.743Z,3.00
2023-05-24T12:54:04.799Z,3.13
2023-05-24T12:56:31.953Z,3.10
2023-05-24T12:58:59.139Z,2.75
2023-05-24T13:01:26.337Z,2.80
2023-05-24T13:03:53.786Z,3.30
2023-05-24T13:06:21.010Z,2.90
2023-05-24T13:08:48.287Z,2.58
2023-05-24T13:11:16.355Z,3.00
2023-05-24T13:13:44.652Z,3.10
2023-05-24T13:16:11.949Z,3.15
2023-05-24T13:18:39.293Z,3.30
2023-05-24T13:21:06.651Z,3.40
2023-05-24T13:23:37.668Z,2.80
2023-05-24T13:26:04.926Z,2.65
2023-05-24T13:28:32.113Z,2.80
2023-05-24T13:30:59.314Z,2.92
2023-05-24T13:33:26.735Z,3.13
2023-05-24T13:35:54.589Z,2.60
2023-05-24T13:38:22.332Z,2.80
2023-05-24T13:40:50.133Z,3.00
2023-05-24T13:43:17.457Z,3.22
2023-05-24T13:45:45.586Z,2.50
2023-05-24T13:48:13.134Z,3.20
2023-05-24T13:50:40.433Z,3.03
2023-05-24T13:53:08.026Z,3.40
2023-05-24T13:55:37.624Z,2.92
2023-05-24T13:58:05.200Z,3.03
2023-05-24T14:00:33.430Z,2.97
2023-05-24T14:03:00.617Z,2.78
2023-05-24T14:05:29.238Z,3.20
2023-05-24T14:07:58.050Z,3.40
2023-05-24T14:10:25.269Z,3.47
2023-05-24T14:13:07.978Z,3.25
2023-05-24T14:15:39.997Z,2.97
2023-05-24T14:18:08.736Z,2.88
2023-05-24T14:20:40.187Z,2.70
2023-05-24T14:23:08.038Z,3.05
2023-05-24T14:25:35.378Z,3.00
2023-05-24T14:28:03.745Z,3.40
2023-05-24T14:30:33.718Z,3.22
2023-05-24T14:33:01.219Z,3.30
2023-05-24T14:35:28.457Z,3.42
2023-05-24T14:37:55.670Z,3.17
2023-05-24T14:40:22.910Z,3.38
2023-05-24T14:42:50.142Z,3.10
2023-05-24T14:45:17.311Z,3.58
2023-05-24T14:47:44.605Z,3.28
2023-05-24T14:50:12.026Z,3.03
2023-05-24T14:52:39.185Z,3.22
2023-05-24T14:55:07.245Z,3.28
2023-05-24T14:57:34.449Z,3.30
2023-05-24T15:00:01.592Z,3.28
2023-05-24T15:02:28.921Z,3.45
2023-05-24T15:04:56.152Z,3.20
2023-05-24T15:07:23.349Z,3.30
2023-05-24T15:09:50.507Z,3.47
2023-05-24T15:12:17.637Z,3.00
2023-05-24T15:14:44.847Z,3.13
2023-05-24T15:17:12.216Z,3.40
2023-05-24T15:19:40.043Z,3.50
2023-05-24T15:22:07.917Z,3.30
2023-05-24T15:24:35.110Z,3.38
2023-05-24T15:27:02.292Z,3.20
2023-05-24T15:29:29.429Z,3.60
2023-05-24T15:31:58.604Z,3.17
2023-05-24T15:34:25.751Z,3.60
2023-05-24T15:36:52.922Z,2.95
2023-05-24T15:39:21.515Z,3.80
2023-05-24T15:41:48.738Z,3.55
2023-05-24T15:44:15.855Z,3.70
2023-05-24T15:46:43.563Z,3.10
2023-05-24T15:49:10.777Z,3.50
2023-05-24T15:54:08.716Z,3.60
2023-05-24T15:56:35.825Z,3.38
2023-05-24T15:59:03.150Z,3.65
2023-05-24T16:01:30.340Z,3.90
2023-05-24T16:03:57.517Z,3.85
2023-05-24T16:06:24.733Z,3.37
2023-05-24T16:08:51.953Z,3.53
2023-05-24T16:11:21.513Z,3.55
2023-05-24T16:13:50.084Z,3.50
2023-05-24T16:16:17.272Z,3.47
2023-05-24T16:18:44.500Z,3.57
2023-05-24T16:21:12.142Z,3.50
2023-05-24T16:23:39.450Z,3.37
2023-05-24T16:26:06.597Z,3.30
2023-05-24T16:28:33.797Z,3.50
2023-05-24T16:31:03.086Z,3.38
2023-05-24T16:33:30.400Z,3.10
2023-05-24T16:35:58.630Z,3.03
2023-05-24T16:38:27.033Z,3.20
2023-05-24T16:40:54.454Z,3.17
2023-05-24T16:43:21.813Z,3.50
2023-05-24T16:45:49.239Z,2.90
2023-05-24T16:48:18.195Z,3.15
2023-05-24T16:50:45.635Z,3.33
2023-05-24T16:53:12.792Z,2.93
2023-05-24T16:55:39.923Z,2.90
2023-05-24T16:58:07.242Z,3.30
2023-05-24T17:00:34.423Z,2.80
2023-05-24T17:03:01.680Z,3.07
2023-05-24T17:05:28.942Z,3.33
2023-05-24T17:07:56.200Z,3.17
2023-05-24T17:10:23.404Z,3.30
2023-05-24T17:12:50.581Z,3.70
2023-05-24T17:15:17.880Z,3.30
2023-05-24T17:17:45.069Z,3.53
2023-05-24T17:20:13.915Z,3.30
2023-05-24T17:22:41.169Z,3.10
2023-05-24T17:25:08.663Z,3.20
2023-05-24T17:27:35.804Z,3.27
2023-05-24T17:30:02.939Z,3.27
2023-05-24T17:32:30.202Z,3.43
2023-05-24T17:34:57.610Z,3.40
2023-05-24T17:37:24.732Z,3.30
2023-05-24T17:39:52.412Z,3.70
2023-05-24T17:42:19.683Z,3.83
2023-05-24T17:44:47.512Z,3.27
2023-05-24T17:47:14.629Z,2.97
2023-05-24T17:49:41.825Z,2.97
2023-05-24T17:52:08.997Z,3.20
2023-05-24T17:54:36.218Z,3.20
2023-05-24T17:57:03.913Z,3.50
2023-05-24T17:59:31.647Z,3.57
2023-05-24T18:01:58.772Z,3.20
2023-05-24T18:04:25.995Z,3.37
2023-05-24T18:06:53.251Z,3.63
2023-05-24T18:09:20.395Z,3.20
2023-05-24T18:11:47.605Z,3.30
2023-05-24T18:14:14.822Z,3.03
2023-05-24T18:16:42.957Z,3.50
2023-05-24T18:19:10.235Z,2.83
2023-05-24T18:21:37.545Z,3.57
2023-05-24T18:24:04.710Z,3.20
2023-05-24T18:26:31.884Z,3.80
2023-05-24T18:28:59.016Z,3.50
2023-05-24T18:31:26.188Z,3.20
2023-05-24T18:33:53.696Z,3.60
2023-05-24T18:36:21.035Z,3.27
2023-05-24T18:38:48.218Z,3.50
2023-05-24T18:41:16.529Z,3.10
2023-05-24T18:43:43.796Z,3.60
2023-05-24T18:46:14.740Z,3.43
2023-05-24T18:48:42.458Z,3.70
2023-05-24T18:51:09.644Z,3.30
2023-05-24T18:53:36.849Z,3.27
2023-05-24T18:56:04.162Z,3.27
2023-05-24T18:58:31.606Z,3.60
2023-05-24T19:00:58.808Z,3.70
2023-05-24T19:03:26.055Z,3.20
2023-05-24T19:05:53.284Z,3.40
2023-05-24T19:08:20.573Z,3.00
2023-05-24T19:10:47.764Z,3.87
2023-05-24T19:13:15.674Z,3.00
2023-05-24T19:15:43.120Z,3.23
2023-05-24T19:18:11.690Z,3.83
2023-05-24T19:20:38.962Z,3.20
2023-05-24T19:23:06.531Z,3.80
2023-05-24T19:25:41.626Z,3.60
2023-05-24T19:28:09.461Z,3.67
2023-05-24T19:30:37.545Z,3.43
2023-05-24T19:33:04.774Z,3.90
2023-05-24T19:35:31.991Z,3.50
2023-05-24T19:37:59.108Z,3.63
2023-05-24T19:40:26.258Z,3.70
2023-05-24T19:42:53.400Z,3.40
2023-05-24T19:45:20.524Z,3.93
2023-05-24T19:47:47.737Z,3.73
2023-05-24T19:50:14.936Z,4.10
2023-05-24T19:52:42.076Z,4.00
2023-05-24T19:55:09.563Z,4.10
2023-05-24T19:57:36.706Z,3.73
2023-05-24T20:00:04.863Z,3.73
2023-05-24T20:02:33.406Z,3.83
2023-05-24T20:05:01.974Z,3.63
2023-05-24T20:07:29.125Z,3.57
2023-05-24T20:09:56.541Z,4.00
2023-05-24T20:12:23.751Z,3.97
2023-05-24T20:14:52.339Z,3.93
2023-05-24T20:17:19.493Z,3.67
2023-05-24T20:19:46.764Z,3.60
2023-05-24T20:22:16.157Z,3.67
2023-05-24T20:24:43.366Z,3.93
2023-05-24T20:27:10.510Z,4.13
2023-05-24T20:29:37.795Z,4.10
2023-05-24T20:32:05.109Z,3.67
2023-05-24T20:34:33.030Z,3.97
2023-05-24T20:37:00.192Z,3.60
2023-05-24T20:39:27.392Z,3.67
2023-05-24T20:41:54.666Z,3.80
2023-05-24T20:44:22.345Z,3.50
2023-05-24T20:46:49.457Z,3.90
2023-05-24T20:49:16.626Z,3.50
2023-05-24T20:51:43.752Z,3.50
2023-05-24T20:54:13.266Z,3.60
2023-05-24T20:56:40.598Z,3.43
2023-05-24T20:59:07.739Z,3.70
2023-05-24T21:01:34.947Z,3.83
2023-05-24T21:04:02.150Z,3.53
2023-05-24T21:06:30.423Z,4.07
2023-05-24T21:09:01.010Z,3.67
2023-05-24T21:11:28.717Z,4.00
2023-05-24T21:13:56.759Z,4.20
2023-05-24T21:16:24.136Z,4.00
2023-05-24T21:18:52.327Z,3.87
2023-05-24T21:21:19.549Z,3.47
2023-05-24T21:23:46.702Z,3.70
2023-05-24T21:26:13.851Z,3.47
2023-05-24T21:28:41.025Z,3.47
2023-05-24T21:31:08.254Z,4.07
2023-05-24T21:33:36.269Z,3.67
2023-05-24T21:36:03.526Z,3.77
2023-05-24T21:38:30.701Z,3.73
2023-05-24T21:40:57.866Z,3.40
2023-05-24T21:43:25.008Z,3.60
2023-05-24T21:45:52.178Z,3.80
2023-05-24T21:48:19.320Z,3.30
2023-05-24T21:50:46.717Z,3.73
2023-05-24T21:53:13.907Z,3.87
2023-05-24T21:55:41.318Z,3.97
2023-05-24T21:58:08.533Z,3.80
2023-05-24T22:00:35.894Z,3.73
2023-05-24T22:03:03.125Z,4.03
2023-05-24T22:05:30.363Z,3.50
2023-05-24T22:07:57.497Z,3.97
2023-05-24T22:10:24.688Z,4.13
2023-05-24T22:12:51.918Z,3.70
2023-05-24T22:15:19.150Z,4.33
2023-05-24T22:17:46.390Z,4.07
2023-05-24T22:20:13.624Z,3.87
2023-05-24T22:22:48.760Z,4.00
2023-05-24T22:25:19.303Z,3.90
2023-05-24T22:27:46.648Z,4.23
2023-05-24T22:30:14.303Z,4.17
2023-05-24T22:32:43.264Z,3.90
2023-05-24T22:35:10.585Z,3.67
2023-05-24T22:37:37.786Z,4.13
2023-05-24T22:40:05.828Z,4.07
2023-05-24T22:42:32.978Z,3.87
2023-05-24T22:45:00.217Z,4.10
2023-05-24T22:47:28.747Z,4.10
2023-05-24T22:49:56.473Z,3.93
2023-05-24T22:52:24.664Z,3.80
2023-05-24T22:54:51.817Z,4.20
2023-05-24T22:57:22.903Z,3.70
2023-05-24T22:59:50.104Z,4.10
2023-05-24T23:02:17.402Z,3.70
2023-05-24T23:04:46.215Z,3.83
2023-05-24T23:07:15.420Z,4.00
2023-05-24T23:09:43.090Z,4.40
2023-05-24T23:12:11.629Z,4.10
2023-05-24T23:14:39.619Z,4.27
2023-05-24T23:17:07.447Z,4.23
2023-05-24T23:19:34.847Z,3.87
2023-05-24T23:22:03.498Z,4.10
2023-05-24T23:24:31.309Z,4.10
2023-05-24T23:26:58.440Z,4.00
2023-05-24T23:29:25.618Z,4.20
2023-05-24T23:31:52.804Z,4.27
2023-05-24T23:34:19.953Z,4.50
2023-05-24T23:36:47.112Z,4.50
2023-05-24T23:39:14.270Z,4.57
2023-05-24T23:41:41.442Z,4.33
2023-05-24T23:44:08.620Z,4.90
2023-05-24T23:46:36.076Z,4.77
2023-05-24T23:49:03.287Z,4.27
2023-05-24T23:51:33.457Z,4.60
2023-05-24T23:54:01.069Z,4.43
2023-05-24T23:56:28.219Z,5.00
2023-05-24T23:58:55.909Z,4.33
